createdAt,value
2023-02-20T00:00:22.316Z,8.87
2023-02-20T00:02:49.434Z,8.83
2023-02-20T00:05:17.418Z,11.03
2023-02-20T00:07:44.213Z,10.03
2023-02-20T00:10:11.168Z,11.20
2023-02-20T00:12:38.347Z,12.60
2023-02-20T00:15:05.716Z,9.80
2023-02-20T00:17:32.438Z,10.43
2023-02-20T00:19:59.157Z,9.67
2023-02-20T00:22:26.677Z,11.70
2023-02-20T00:24:53.672Z,10.20
2023-02-20T00:27:20.529Z,10.33
2023-02-20T00:29:47.585Z,12.10
2023-02-20T00:32:14.338Z,11.67
2023-02-20T00:34:41.178Z,10.17
2023-02-20T00:37:08.670Z,10.70
2023-02-20T00:39:35.424Z,14.03
2023-02-20T00:42:02.516Z,11.17
2023-02-20T00:44:29.350Z,12.60
2023-02-20T00:46:56.047Z,12.23
2023-02-20T00:49:22.789Z,11.87
2023-02-20T00:51:49.653Z,15.20
2023-02-20T00:54:16.825Z,13.50
2023-02-20T00:56:43.507Z,13.37
2023-02-20T00:59:10.265Z,13.30
2023-02-20T01:01:37.020Z,15.10
2023-02-20T01:04:03.734Z,16.70
2023-02-20T01:06:30.542Z,17.60
2023-02-20T01:08:57.325Z,17.17
2023-02-20T01:11:24.149Z,18.80
2023-02-20T01:13:50.871Z,14.63
2023-02-20T01:16:17.781Z,18.53
2023-02-20T01:18:44.642Z,15.90
2023-02-20T01:21:11.371Z,16.90
2023-02-20T01:23:38.102Z,21.37
2023-02-20T01:26:04.983Z,18.53
2023-02-20T01:28:31.707Z,20.03
2023-02-20T01:30:58.504Z,19.23
2023-02-20T01:33:25.278Z,20.17
2023-02-20T01:35:51.985Z,18.33
2023-02-20T01:38:18.855Z,19.57
2023-02-20T01:40:49.496Z,21.50
2023-02-20T01:43:16.782Z,19.10
2023-02-20T01:45:44.871Z,16.63
2023-02-20T01:48:22.110Z,18.17
2023-02-20T01:50:52.227Z,17.67
2023-02-20T01:53:23.772Z,15.80
2023-02-20T01:56:02.405Z,21.83
2023-02-20T01:58:34.096Z,17.07
2023-02-20T02:01:01.164Z,20.53
2023-02-20T02:03:36.952Z,19.20
2023-02-20T02:06:07.267Z,19.00
2023-02-20T02:08:37.184Z,19.90
2023-02-20T02:11:05.388Z,18.17
2023-02-20T02:13:34.253Z,17.77
2023-02-20T02:16:34.847Z,19.20
2023-02-20T02:19:39.081Z,19.33
2023-02-20T02:22:22.187Z,20.60
2023-02-20T02:25:10.522Z,19.20
2023-02-20T02:27:52.523Z,19.77
2023-02-20T02:30:22.055Z,18.47
2023-02-20T02:33:10.973Z,20.27
2023-02-20T02:35:58.435Z,23.47
2023-02-20T02:38:45.629Z,20.10
2023-02-20T02:41:18.174Z,22.80
2023-02-20T02:43:44.834Z,25.10
2023-02-20T02:46:21.894Z,23.27
2023-02-20T02:48:56.836Z,23.50
2023-02-20T02:51:32.780Z,23.33
2023-02-20T02:54:20.809Z,25.27
2023-02-20T02:56:48.942Z,27.40
2023-02-20T02:59:22.742Z,24.90
2023-02-20T03:02:00.716Z,27.43
2023-02-20T03:04:29.948Z,27.80
2023-02-20T03:07:03.757Z,29.53
2023-02-20T03:09:40.600Z,28.43
2023-02-20T03:12:09.667Z,29.57
2023-02-20T03:15:01.210Z,28.93
2023-02-20T03:17:33.110Z,33.23
2023-02-20T03:20:03.707Z,34.50
2023-02-20T03:22:38.975Z,31.20
2023-02-20T03:25:21.283Z,32.47
2023-02-20T03:28:01.742Z,31.87
2023-02-20T03:31:00.040Z,28.70
2023-02-20T03:33:57.374Z,33.03
2023-02-20T03:36:46.848Z,28.87
2023-02-20T03:39:38.405Z,29.40
2023-02-20T03:42:27.799Z,27.10
2023-02-20T03:44:57.003Z,27.70
2023-02-20T03:47:27.508Z,30.83
2023-02-20T03:49:55.868Z,25.90
2023-02-20T03:52:23.933Z,32.75
2023-02-20T03:54:51.171Z,32.27
2023-02-20T03:57:28.534Z,29.57
2023-02-20T04:00:31.104Z,30.53
2023-02-20T04:03:03.359Z,26.00
2023-02-20T04:05:34.874Z,28.90
2023-02-20T04:08:06.529Z,27.93
2023-02-20T04:10:47.828Z,29.00
2023-02-20T04:13:17.186Z,26.03
2023-02-20T04:15:44.701Z,27.53
2023-02-20T04:18:15.139Z,24.70
2023-02-20T04:20:41.920Z,31.10
2023-02-20T04:23:17.323Z,25.33
2023-02-20T04:25:47.297Z,25.50
2023-02-20T04:28:15.592Z,27.00
2023-02-20T04:30:42.706Z,30.37
2023-02-20T04:33:14.656Z,35.50
2023-02-20T04:35:41.777Z,29.20
2023-02-20T04:38:09.622Z,26.53
2023-02-20T04:40:36.512Z,26.20
2023-02-20T04:43:03.609Z,24.67
2023-02-20T04:45:30.471Z,23.70
2023-02-20T04:47:57.341Z,24.60
2023-02-20T04:50:30.841Z,23.40
2023-02-20T04:52:58.345Z,25.50
2023-02-20T04:55:25.423Z,28.23
2023-02-20T04:57:53.725Z,24.80
2023-02-20T05:00:22.069Z,23.40
2023-02-20T05:02:49.118Z,31.70
2023-02-20T05:05:21.811Z,25.73
2023-02-20T05:07:48.958Z,25.80
2023-02-20T05:10:20.897Z,25.27
2023-02-20T05:12:47.736Z,28.20
2023-02-20T05:15:15.266Z,23.40
2023-02-20T05:17:41.941Z,30.93
2023-02-20T05:20:09.353Z,28.00
2023-02-20T05:22:36.081Z,26.53
2023-02-20T05:25:02.816Z,26.67
2023-02-20T05:27:29.691Z,32.73
2023-02-20T05:29:58.509Z,29.43
2023-02-20T05:32:27.903Z,26.23
2023-02-20T05:34:54.912Z,26.47
2023-02-20T05:37:23.755Z,25.90
2023-02-20T05:39:50.827Z,31.63
2023-02-20T05:42:18.379Z,26.00
2023-02-20T05:44:45.483Z,27.33
2023-02-20T05:47:12.386Z,25.00
2023-02-20T05:49:39.082Z,26.00
2023-02-20T05:52:13.022Z,33.07
2023-02-20T05:54:41.286Z,32.00
2023-02-20T05:57:08.965Z,28.87
2023-02-20T05:59:35.634Z,31.77
2023-02-20T06:02:02.430Z,28.40
2023-02-20T06:04:30.000Z,25.97
2023-02-20T06:06:56.843Z,30.53
2023-02-20T06:09:23.588Z,31.47
2023-02-20T06:11:52.626Z,32.60
2023-02-20T06:14:20.611Z,37.50
2023-02-20T06:16:47.632Z,35.40
2023-02-20T06:19:23.505Z,34.83
2023-02-20T06:21:53.530Z,40.90
2023-02-20T06:24:21.247Z,41.03
2023-02-20T06:26:48.944Z,42.63
2023-02-20T06:29:16.595Z,40.47
2023-02-20T06:31:43.806Z,48.20
2023-02-20T06:34:11.580Z,41.70
2023-02-20T06:36:40.953Z,43.20
2023-02-20T06:39:09.298Z,46.80
2023-02-20T06:41:36.531Z,43.03
2023-02-20T06:44:03.335Z,48.67
2023-02-20T06:46:30.273Z,43.70
2023-02-20T06:48:58.956Z,53.23
2023-02-20T06:51:32.961Z,52.40
2023-02-20T06:54:00.589Z,47.90
2023-02-20T06:56:32.280Z,44.13
2023-02-20T06:59:00.253Z,53.97
2023-02-20T07:01:29.532Z,52.80
2023-02-20T07:03:57.702Z,52.50
2023-02-20T07:06:25.771Z,55.57
2023-02-20T07:08:52.789Z,43.93
2023-02-20T07:11:22.044Z,50.93
2023-02-20T07:13:49.321Z,52.10
2023-02-20T07:16:16.447Z,52.80
2023-02-20T07:18:43.405Z,51.70
2023-02-20T07:21:10.358Z,58.33
2023-02-20T07:23:37.178Z,51.97
2023-02-20T07:26:04.182Z,54.63
2023-02-20T07:28:30.993Z,53.70
2023-02-20T07:30:57.692Z,50.50
2023-02-20T07:33:24.426Z,53.47
2023-02-20T07:35:51.139Z,50.13
2023-02-20T07:38:17.876Z,44.63
2023-02-20T07:40:44.581Z,46.97
2023-02-20T07:43:11.381Z,44.93
2023-02-20T07:45:39.383Z,51.50
2023-02-20T07:48:06.538Z,42.00
2023-02-20T07:50:34.359Z,39.00
2023-02-20T07:53:01.068Z,36.50
2023-02-20T07:55:27.892Z,35.63
2023-02-20T07:57:58.246Z,38.67
2023-02-20T08:00:27.111Z,39.97
2023-02-20T08:02:53.968Z,37.10
2023-02-20T08:05:21.286Z,37.63
2023-02-20T08:07:49.980Z,34.70
2023-02-20T08:10:19.883Z,39.47
2023-02-20T08:12:47.325Z,44.37
2023-02-20T08:15:15.040Z,32.47
2023-02-20T08:17:47.011Z,40.90
2023-02-20T08:20:15.858Z,43.33
2023-02-20T08:22:44.636Z,36.20
2023-02-20T08:25:12.325Z,35.83
2023-02-20T08:27:43.634Z,37.43
2023-02-20T08:30:23.792Z,41.80
2023-02-20T08:32:51.951Z,37.67
2023-02-20T08:35:19.676Z,32.53
2023-02-20T08:37:46.957Z,37.20
2023-02-20T08:40:13.848Z,34.33
2023-02-20T08:42:40.646Z,39.13
2023-02-20T08:45:09.052Z,38.53
2023-02-20T08:47:35.982Z,43.30
2023-02-20T08:50:03.180Z,37.63
2023-02-20T08:52:29.862Z,31.93
2023-02-20T08:54:56.517Z,35.00
2023-02-20T08:57:23.274Z,34.03
2023-02-20T08:59:49.996Z,40.13
2023-02-20T09:02:28.912Z,36.40
2023-02-20T09:04:56.679Z,34.33
2023-02-20T09:07:24.194Z,36.90
2023-02-20T09:09:51.052Z,43.80
2023-02-20T09:12:19.094Z,39.23
2023-02-20T09:14:46.166Z,41.73
2023-02-20T09:17:13.141Z,40.70
2023-02-20T09:19:39.991Z,43.27
2023-02-20T09:22:06.740Z,42.47
2023-02-20T09:24:34.345Z,37.40
2023-02-20T09:27:02.262Z,58.23
2023-02-20T09:29:29.090Z,51.30
2023-02-20T09:31:55.999Z,43.43
2023-02-20T09:34:23.326Z,47.50
2023-02-20T09:36:50.151Z,53.60
2023-02-20T09:39:18.001Z,49.80
2023-02-20T09:41:54.467Z,40.67
2023-02-20T09:44:32.596Z,54.20
2023-02-20T09:47:23.138Z,49.43
2023-02-20T09:49:50.414Z,50.77
2023-02-20T09:52:18.333Z,56.97
2023-02-20T09:54:52.538Z,50.30
2023-02-20T09:57:24.001Z,51.27
2023-02-20T09:59:53.127Z,48.10
2023-02-20T10:02:52.612Z,54.07
2023-02-20T10:05:29.260Z,43.93
2023-02-20T10:07:56.491Z,55.93
2023-02-20T10:10:34.161Z,47.67
2023-02-20T10:13:18.906Z,43.67
2023-02-20T10:16:13.851Z,43.97
2023-02-20T10:18:40.739Z,45.33
2023-02-20T10:21:10.265Z,42.80
2023-02-20T10:24:03.747Z,47.17
2023-02-20T10:26:38.567Z,50.50
2023-02-20T10:29:26.277Z,53.40
2023-02-20T10:32:01.836Z,51.50
2023-02-20T10:35:11.451Z,45.90
2023-02-20T10:37:48.069Z,44.33
2023-02-20T10:40:24.659Z,44.90
2023-02-20T10:42:53.996Z,48.47
2023-02-20T10:45:31.370Z,63.20
2023-02-20T10:48:02.393Z,50.20
2023-02-20T10:50:37.861Z,41.53
2023-02-20T10:53:29.109Z,49.97
2023-02-20T10:56:14.685Z,41.33
2023-02-20T10:58:49.679Z,49.93
2023-02-20T11:01:22.025Z,48.40
2023-02-20T11:04:03.919Z,49.60
2023-02-20T11:06:35.732Z,51.67
2023-02-20T11:09:03.136Z,56.03
2023-02-20T11:11:36.306Z,44.37
2023-02-20T11:14:14.529Z,44.30
2023-02-20T11:16:58.531Z,41.23
2023-02-20T11:19:33.006Z,39.03
2023-02-20T11:21:59.853Z,45.67
2023-02-20T11:24:40.720Z,55.90
2023-02-20T11:27:22.465Z,39.30
2023-02-20T11:30:32.682Z,50.77
2023-02-20T11:33:05.990Z,41.40
2023-02-20T11:35:39.033Z,41.27
2023-02-20T11:38:24.048Z,39.30
2023-02-20T11:40:53.668Z,42.23
2023-02-20T11:43:27.808Z,43.83
2023-02-20T11:46:23.429Z,38.57
2023-02-20T11:49:02.226Z,41.23
2023-02-20T11:51:42.357Z,46.07
2023-02-20T11:54:24.200Z,36.30
2023-02-20T11:57:06.782Z,41.50
2023-02-20T11:59:43.211Z,46.17
2023-02-20T12:02:16.126Z,44.67
2023-02-20T12:05:21.240Z,43.53
2023-02-20T12:07:53.732Z,37.20
2023-02-20T12:10:39.296Z,44.87
2023-02-20T12:13:11.148Z,39.10
2023-02-20T12:15:38.105Z,37.70
2023-02-20T12:18:36.788Z,37.43
2023-02-20T12:21:14.334Z,38.27
2023-02-20T12:23:57.515Z,36.97
2023-02-20T12:26:27.301Z,36.03
2023-02-20T12:29:18.590Z,39.27
2023-02-20T12:32:14.454Z,36.03
2023-02-20T12:35:02.027Z,45.33
2023-02-20T12:37:50.345Z,29.23
2023-02-20T12:40:25.929Z,29.70
2023-02-20T12:43:18.860Z,37.27
2023-02-20T12:46:12.199Z,42.27
2023-02-20T12:49:06.942Z,47.47
2023-02-20T12:51:42.585Z,35.73
2023-02-20T12:54:30.918Z,34.63
2023-02-20T12:57:26.346Z,41.27
2023-02-20T13:00:02.527Z,35.70
2023-02-20T13:02:48.417Z,51.07
2023-02-20T13:05:20.460Z,35.10
2023-02-20T13:08:01.658Z,46.93
2023-02-20T13:10:32.909Z,37.53
2023-02-20T13:13:00.452Z,37.13
2023-02-20T13:15:39.442Z,29.90
2023-02-20T13:18:33.527Z,32.93
2023-02-20T13:21:06.801Z,36.90
2023-02-20T13:23:36.176Z,31.13
2023-02-20T13:26:23.430Z,33.00
2023-02-20T13:28:50.224Z,32.70
2023-02-20T13:31:42.393Z,27.20
2023-02-20T13:34:09.061Z,29.03
2023-02-20T13:36:35.755Z,32.67
2023-02-20T13:39:20.165Z,33.10
2023-02-20T13:41:56.070Z,31.73
2023-02-20T13:44:47.141Z,24.27
2023-02-20T13:47:27.498Z,34.37
2023-02-20T13:49:58.880Z,36.60
2023-02-20T13:52:32.160Z,32.73
2023-02-20T13:55:22.844Z,30.50
2023-02-20T13:57:54.736Z,34.60
2023-02-20T14:00:40.052Z,33.40
2023-02-20T14:03:13.173Z,54.63
2023-02-20T14:05:40.221Z,32.13
2023-02-20T14:08:06.983Z,34.23
2023-02-20T14:10:38.741Z,36.13
2023-02-20T14:13:30.851Z,33.10
2023-02-20T14:16:19.826Z,29.23
2023-02-20T14:18:46.686Z,33.47
2023-02-20T14:21:22.916Z,32.60
2023-02-20T14:23:51.089Z,40.17
2023-02-20T14:26:22.297Z,34.60
2023-02-20T14:28:51.789Z,33.17
2023-02-20T14:31:24.828Z,31.97
2023-02-20T14:33:56.839Z,30.30
2023-02-20T14:36:52.681Z,28.17
2023-02-20T14:40:02.152Z,32.60
2023-02-20T14:42:28.962Z,28.30
2023-02-20T14:45:06.478Z,34.93
2023-02-20T14:47:35.505Z,26.33
2023-02-20T14:50:16.701Z,37.57
2023-02-20T14:52:43.511Z,31.53
2023-02-20T14:55:17.872Z,28.17
2023-02-20T14:57:44.636Z,31.17
2023-02-20T15:00:20.612Z,28.60
2023-02-20T15:02:51.673Z,30.37
2023-02-20T15:05:27.202Z,25.17
2023-02-20T15:08:01.430Z,29.90
2023-02-20T15:10:39.440Z,28.47
2023-02-20T15:13:11.967Z,29.43
2023-02-20T15:15:43.005Z,25.93
2023-02-20T15:18:14.165Z,31.83
2023-02-20T15:20:43.389Z,33.97
2023-02-20T15:23:16.300Z,31.03
2023-02-20T15:25:44.478Z,43.77
2023-02-20T15:28:17.233Z,31.20
2023-02-20T15:31:02.079Z,25.17
2023-02-20T15:33:30.403Z,29.43
2023-02-20T15:35:58.896Z,26.00
2023-02-20T15:38:31.306Z,25.40
2023-02-20T15:41:00.166Z,30.37
2023-02-20T15:43:43.615Z,31.03
2023-02-20T15:46:12.489Z,29.87
2023-02-20T15:48:39.638Z,27.13
2023-02-20T15:51:06.527Z,27.50
2023-02-20T15:53:33.607Z,28.60
2023-02-20T15:56:01.905Z,29.73
2023-02-20T15:58:34.878Z,23.70
2023-02-20T16:01:02.258Z,30.30
2023-02-20T16:03:33.968Z,34.07
2023-02-20T16:06:05.973Z,32.63
2023-02-20T16:08:32.759Z,28.10
2023-02-20T16:10:59.906Z,26.75
2023-02-20T16:13:37.561Z,30.83
2023-02-20T16:16:23.123Z,33.03
2023-02-20T16:18:52.675Z,30.33
2023-02-20T16:21:21.257Z,31.10
2023-02-20T16:23:50.134Z,34.03
2023-02-20T16:26:18.450Z,28.77
2023-02-20T16:28:57.797Z,30.20
2023-02-20T16:31:53.422Z,33.07
2023-02-20T16:34:28.189Z,30.63
2023-02-20T16:36:54.933Z,32.50
2023-02-20T16:39:26.915Z,29.67
2023-02-20T16:41:58.367Z,32.63
2023-02-20T16:44:36.505Z,32.30
2023-02-20T16:47:03.619Z,29.93
2023-02-20T16:49:37.000Z,27.80
2023-02-20T16:52:11.708Z,33.90
2023-02-20T16:54:38.379Z,27.03
2023-02-20T16:57:05.152Z,30.70
2023-02-20T16:59:31.892Z,29.70
2023-02-20T17:01:59.418Z,28.13
2023-02-20T17:04:26.529Z,28.93
2023-02-20T17:06:53.471Z,24.13
2023-02-20T17:09:20.230Z,22.07
2023-02-20T17:11:46.984Z,23.67
2023-02-20T17:14:13.707Z,28.33
2023-02-20T17:16:40.986Z,21.60
2023-02-20T17:19:08.596Z,26.90
2023-02-20T17:21:35.315Z,27.80
2023-02-20T17:24:02.046Z,26.97
2023-02-20T17:26:28.924Z,25.90
2023-02-20T17:28:55.590Z,22.27
2023-02-20T17:31:22.773Z,23.37
2023-02-20T17:33:49.691Z,26.20
2023-02-20T17:36:16.519Z,24.17
2023-02-20T17:38:43.619Z,26.87
2023-02-20T17:41:10.335Z,25.13
2023-02-20T17:43:38.886Z,26.73
2023-02-20T17:46:05.688Z,24.67
2023-02-20T17:48:32.476Z,28.33
2023-02-20T17:50:59.528Z,26.50
2023-02-20T17:53:26.323Z,27.23
2023-02-20T17:55:53.198Z,29.10
2023-02-20T17:58:19.921Z,30.20
2023-02-20T18:00:46.726Z,26.30
2023-02-20T18:03:13.409Z,28.03
2023-02-20T18:05:40.155Z,28.10
2023-02-20T18:08:06.930Z,28.67
2023-02-20T18:10:33.694Z,30.00
2023-02-20T18:13:03.529Z,32.40
2023-02-20T18:15:35.833Z,38.90
2023-02-20T18:18:03.991Z,35.10
2023-02-20T18:20:30.854Z,47.40
2023-02-20T18:22:58.539Z,38.27
2023-02-20T18:25:38.026Z,35.93
2023-02-20T18:28:06.720Z,38.37
2023-02-20T18:30:34.641Z,38.77
2023-02-20T18:33:01.965Z,45.47
2023-02-20T18:35:28.867Z,50.67
2023-02-20T18:37:55.759Z,48.73
2023-02-20T18:40:24.152Z,44.27
2023-02-20T18:42:51.711Z,50.73
2023-02-20T18:45:20.345Z,53.70
2023-02-20T18:47:53.210Z,57.00
2023-02-20T18:50:20.178Z,50.37
2023-02-20T18:52:49.137Z,53.57
2023-02-20T18:55:20.203Z,50.50
2023-02-20T18:57:49.287Z,51.63
2023-02-20T19:00:25.280Z,50.53
2023-02-20T19:02:54.761Z,49.70
2023-02-20T19:05:22.733Z,49.00
2023-02-20T19:07:49.553Z,47.00
2023-02-20T19:10:26.407Z,53.67
2023-02-20T19:12:55.328Z,54.80
2023-02-20T19:15:24.939Z,56.83
2023-02-20T19:17:52.891Z,55.80
2023-02-20T19:20:28.720Z,49.20
2023-02-20T19:22:56.462Z,56.33
2023-02-20T19:25:23.425Z,59.60
2023-02-20T19:27:50.337Z,57.80
2023-02-20T19:30:18.076Z,53.23
2023-02-20T19:32:45.001Z,69.33
2023-02-20T19:35:12.444Z,60.27
2023-02-20T19:37:39.284Z,59.83
2023-02-20T19:40:09.597Z,66.27
2023-02-20T19:42:36.641Z,76.27
2023-02-20T19:45:04.750Z,68.00
2023-02-20T19:47:31.657Z,71.87
2023-02-20T19:49:58.417Z,77.00
2023-02-20T19:52:25.700Z,76.57
2023-02-20T19:54:52.421Z,78.00
2023-02-20T19:57:19.165Z,69.20
2023-02-20T19:59:45.921Z,69.10
2023-02-20T20:02:13.192Z,72.40
2023-02-20T20:04:40.452Z,69.43
2023-02-20T20:07:07.342Z,64.43
2023-02-20T20:09:37.145Z,73.77
2023-02-20T20:12:09.279Z,70.43
2023-02-20T20:14:36.231Z,70.73
2023-02-20T20:17:03.826Z,121.33
2023-02-20T20:19:30.929Z,70.53
2023-02-20T20:21:57.735Z,81.20
2023-02-20T20:24:24.527Z,76.80
2023-02-20T20:26:51.232Z,72.87
2023-02-20T20:29:18.062Z,74.23
2023-02-20T20:31:44.837Z,72.43
2023-02-20T20:34:11.571Z,81.77
2023-02-20T20:36:38.344Z,65.40
2023-02-20T20:39:05.338Z,71.57
2023-02-20T20:41:43.977Z,71.37
2023-02-20T20:44:11.701Z,79.53
2023-02-20T20:46:39.142Z,76.30
2023-02-20T20:49:05.902Z,74.27
2023-02-20T20:51:32.546Z,77.40
2023-02-20T20:53:59.284Z,68.67
2023-02-20T20:56:25.996Z,82.33
2023-02-20T20:58:52.769Z,74.73
2023-02-20T21:01:19.704Z,77.73
2023-02-20T21:03:46.527Z,72.50
2023-02-20T21:06:13.610Z,78.43
2023-02-20T21:08:40.423Z,64.43
2023-02-20T21:11:07.374Z,70.97
2023-02-20T21:13:34.452Z,74.40
2023-02-20T21:16:01.307Z,74.77
2023-02-20T21:18:28.285Z,77.27
2023-02-20T21:20:55.312Z,69.20
2023-02-20T21:23:22.172Z,79.17
2023-02-20T21:25:48.999Z,71.87
2023-02-20T21:28:16.525Z,68.00
2023-02-20T21:30:43.500Z,70.27
2023-02-20T21:33:11.220Z,74.00
2023-02-20T21:35:38.255Z,74.87
2023-02-20T21:38:05.776Z,77.30
2023-02-20T21:40:34.544Z,75.07
2023-02-20T21:43:20.446Z,66.80
2023-02-20T21:45:49.805Z,72.93
2023-02-20T21:48:17.299Z,71.40
2023-02-20T21:50:44.038Z,68.13
2023-02-20T21:53:16.182Z,69.90
2023-02-20T21:55:46.673Z,67.50
2023-02-20T21:58:13.686Z,71.70
2023-02-20T22:00:40.986Z,66.60
2023-02-20T22:03:08.497Z,65.93
2023-02-20T22:05:36.442Z,71.73
2023-02-20T22:08:22.166Z,70.10
2023-02-20T22:11:07.441Z,76.77
2023-02-20T22:13:54.092Z,68.60
2023-02-20T22:16:39.915Z,74.03
2023-02-20T22:19:25.281Z,82.03
2023-02-20T22:22:10.688Z,73.63
2023-02-20T22:24:55.996Z,70.73
2023-02-20T22:27:41.650Z,81.57
2023-02-20T22:30:27.671Z,74.37
2023-02-20T22:33:13.142Z,71.33
2023-02-20T22:35:58.970Z,89.50
2023-02-20T22:38:44.479Z,77.40
2023-02-20T22:41:29.920Z,80.10
2023-02-20T22:44:15.262Z,87.63
2023-02-20T22:47:00.852Z,81.07
2023-02-20T22:49:45.958Z,81.70
2023-02-20T22:52:31.332Z,80.03
2023-02-20T22:55:16.841Z,84.20
2023-02-20T22:58:02.212Z,87.57
2023-02-20T23:00:47.764Z,78.97
2023-02-20T23:03:32.939Z,76.60
2023-02-20T23:06:19.771Z,77.50
2023-02-20T23:09:09.105Z,88.40
2023-02-20T23:11:56.424Z,78.80
2023-02-20T23:14:42.163Z,89.97
2023-02-20T23:17:37.226Z,82.90
2023-02-20T23:20:32.187Z,85.47
2023-02-20T23:23:17.608Z,89.30
2023-02-20T23:26:03.096Z,91.17
2023-02-20T23:28:48.551Z,88.27
2023-02-20T23:31:34.716Z,97.07
2023-02-20T23:34:21.173Z,77.67
2023-02-20T23:37:08.474Z,84.33
2023-02-20T23:39:54.381Z,80.80
2023-02-20T23:42:40.226Z,76.70
2023-02-20T23:45:27.234Z,85.13
2023-02-20T23:48:12.500Z,76.57
2023-02-20T23:50:58.186Z,70.07
2023-02-20T23:53:43.479Z,85.83
2023-02-20T23:56:29.164Z,85.20
2023-02-20T23:59:14.539Z,76.23
